Wetterdaten: Woche 24.07.17 - 30.07.17 (KW30)
Datum Zeit Temp. I. Temp. A. Feuchte I. Feuchte A. Luftdruck Regen Wind Richtung Sonnenschein UV Solar Taupunkt Windchill Windben
24.07.2017 00:00 25,7 C 12,6 C 49 % 85 % 1014,4 hPa 0,0 l/m 0,0 km/h (0 Bft) N 0,00 h 0,0 UV-I 0 W/m 10,1 C 12,6 C 0,0 km/h (0 Bft)
24.07.2017 01:00 25,7 C 11,5 C 49 % 88 % 1013,9 hPa 0,0 l/m 0,0 km/h (0 Bft) N 0,00 h 0,0 UV-I 0 W/m 9,7 C 11,5 C 0,0 km/h (0 Bft)
24.07.2017 02:00 25,6 C 10,8 C 49 % 91 % 1013,3 hPa 0,0 l/m 0,0 km/h (0 Bft) N 0,00 h 0,0 UV-I 0 W/m 9,3 C 10,8 C 0,0 km/h (0 Bft)
24.07.2017 03:00 25,6 C 10,5 C 49 % 91 % 1012,6 hPa 0,0 l/m 0,0 km/h (0 Bft) N 0,00 h 0,0 UV-I 0 W/m 9,1 C 10,5 C 0,0 km/h (0 Bft)
24.07.2017 04:00 25,5 C 10,1 C 49 % 92 % 1011,9 hPa 0,0 l/m 0,0 km/h (0 Bft) N 0,00 h 0,0 UV-I 0 W/m 8,9 C 10,1 C 0,0 km/h (0 Bft)
24.07.2017 05:00 25,4 C 9,6 C 49 % 93 % 1011,2 hPa 0,0 l/m 0,0 km/h (0 Bft) N 0,00 h 0,0 UV-I 8 W/m 8,5 C 9,6 C 0,0 km/h (0 Bft)
24.07.2017 06:00 25,3 C 9,9 C 49 % 93 % 1010,6 hPa 0,0 l/m 0,0 km/h (0 Bft) N 0,00 h 0,0 UV-I 27 W/m 8,9 C 9,9 C 0,0 km/h (0 Bft)
24.07.2017 07:00 25,6 C 11,7 C 49 % 91 % 1009,6 hPa 0,0 l/m 0,0 km/h (0 Bft) N 0,33 h 0,7 UV-I 123 W/m 10,3 C 11,7 C 0,0 km/h (0 Bft)
24.07.2017 08:00 25,6 C 14,6 C 49 % 86 % 1008,9 hPa 0,0 l/m 0,0 km/h (0 Bft) N 0,52 h 1,1 UV-I 176 W/m 12,2 C 14,6 C 0,0 km/h (0 Bft)
24.07.2017 09:00 25,6 C 17,8 C 50 % 71 % 1008,4 hPa 0,0 l/m 1,1 km/h (1 Bft) SO 1,00 h 2,2 UV-I 415 W/m 12,5 C 17,8 C 2,5 km/h (1 Bft)
24.07.2017 10:00 25,6 C 19,3 C 49 % 62 % 1007,8 hPa 0,0 l/m 6,9 km/h (2 Bft) SO 1,00 h 2,8 UV-I 357 W/m 11,8 C 18,7 C 12,2 km/h (2 Bft)
24.07.2017 11:00 25,6 C 19,4 C 49 % 66 % 1007,3 hPa 0,0 l/m 4,3 km/h (1 Bft) S-SO 0,93 h 2,0 UV-I 221 W/m 12,9 C 19,2 C 8,3 km/h (2 Bft)
24.07.2017 12:00 25,6 C 19,4 C 49 % 71 % 1006,5 hPa 0,0 l/m 5,0 km/h (1 Bft) S 1,00 h 3,1 UV-I 334 W/m 14,0 C 19,3 C 9,0 km/h (2 Bft)
24.07.2017 13:00 25,7 C 19,3 C 50 % 73 % 1005,9 hPa 0,0 l/m 5,0 km/h (1 Bft) S-SO 0,57 h 1,7 UV-I 165 W/m 14,4 C 19,1 C 9,4 km/h (2 Bft)
24.07.2017 14:00 25,4 C 19,1 C 52 % 76 % 1005,6 hPa 0,0 l/m 6,5 km/h (2 Bft) S 0,58 h 1,8 UV-I 178 W/m 14,8 C 18,6 C 12,0 km/h (2 Bft)
24.07.2017 15:00 25,5 C 17,9 C 52 % 84 % 1005,6 hPa 0,8 l/m 5,2 km/h (1 Bft) S-SO 0,32 h 1,2 UV-I 124 W/m 15,1 C 17,4 C 10,0 km/h (2 Bft)
24.07.2017 16:00 25,7 C 16,1 C 53 % 91 % 1005,8 hPa 0,6 l/m 6,4 km/h (2 Bft) W-SW 0,18 h 0,9 UV-I 111 W/m 14,7 C 15,2 C 13,6 km/h (3 Bft)
24.07.2017 17:00 25,8 C 14,5 C 53 % 90 % 1006,4 hPa 0,0 l/m 6,5 km/h (2 Bft) W-SW 0,00 h 0,7 UV-I 83 W/m 12,8 C 13,6 C 13,6 km/h (3 Bft)
24.07.2017 18:00 25,9 C 14,2 C 54 % 88 % 1006,6 hPa 0,0 l/m 1,0 km/h (0 Bft) W-SW 0,00 h 0,5 UV-I 94 W/m 12,3 C 14,2 C 3,5 km/h (1 Bft)
24.07.2017 19:00 26,0 C 14,3 C 54 % 87 % 1006,7 hPa 0,0 l/m 0,3 km/h (0 Bft) W-SW 0,00 h 0,5 UV-I 62 W/m 12,2 C 14,3 C 1,3 km/h (1 Bft)
24.07.2017 20:00 26,1 C 14,0 C 54 % 89 % 1007,0 hPa 0,0 l/m 0,0 km/h (0 Bft) N 0,00 h 0,0 UV-I 22 W/m 12,3 C 14,0 C 0,1 km/h (0 Bft)
24.07.2017 21:00 26,2 C 13,8 C 54 % 90 % 1007,2 hPa 0,0 l/m 0,0 km/h (0 Bft) W-SW 0,00 h 0,0 UV-I 5 W/m 12,1 C 13,8 C 0,1 km/h (0 Bft)
24.07.2017 22:00 26,1 C 13,4 C 54 % 90 % 1007,2 hPa 0,0 l/m 0,7 km/h (0 Bft) W-SW 0,00 h 0,0 UV-I 0 W/m 11,7 C 13,4 C 2,4 km/h (1 Bft)
24.07.2017 23:00 25,8 C 13,1 C 53 % 88 % 1007,0 hPa 0,0 l/m 1,9 km/h (1 Bft) SW 0,00 h 0,0 UV-I 0 W/m 11,2 C 13,1 C 6,9 km/h (2 Bft)
25.07.2017 00:00 25,7 C 12,3 C 53 % 90 % 1007,2 hPa 0,0 l/m 1,0 km/h (0 Bft) SW 0,00 h 0,0 UV-I 0 W/m 10,7 C 12,3 C 4,5 km/h (1 Bft)
25.07.2017 01:00 25,5 C 12,0 C 53 % 92 % 1007,1 hPa 0,0 l/m 1,3 km/h (1 Bft) SW 0,00 h 0,0 UV-I 0 W/m 10,7 C 12,0 C 4,9 km/h (1 Bft)
25.07.2017 02:00 25,4 C 12,2 C 52 % 91 % 1006,7 hPa 0,0 l/m 2,9 km/h (1 Bft) W-SW 0,00 h 0,0 UV-I 0 W/m 10,8 C 12,0 C 7,7 km/h (2 Bft)
25.07.2017 03:00 25,4 C 12,1 C 52 % 90 % 1006,3 hPa 0,0 l/m 4,0 km/h (1 Bft) W-SW 0,00 h 0,0 UV-I 0 W/m 10,6 C 11,8 C 8,6 km/h (2 Bft)
25.07.2017 04:00 25,3 C 12,1 C 52 % 90 % 1006,0 hPa 0,0 l/m 2,9 km/h (1 Bft) W-SW 0,00 h 0,0 UV-I 0 W/m 10,5 C 12,1 C 8,9 km/h (2 Bft)
25.07.2017 05:00 25,2 C 12,1 C 52 % 89 % 1005,6 hPa 0,0 l/m 4,1 km/h (1 Bft) W-SW 0,00 h 0,0 UV-I 5 W/m 10,4 C 11,8 C 9,1 km/h (2 Bft)
25.07.2017 06:00 25,1 C 12,1 C 51 % 89 % 1005,2 hPa 0,0 l/m 3,9 km/h (1 Bft) W-SW 0,00 h 0,0 UV-I 19 W/m 10,3 C 11,9 C 8,6 km/h (2 Bft)
25.07.2017 07:00 25,2 C 12,4 C 51 % 88 % 1005,1 hPa 0,0 l/m 3,5 km/h (1 Bft) SW 0,00 h 0,5 UV-I 63 W/m 10,5 C 12,1 C 8,7 km/h (2 Bft)
25.07.2017 08:00 25,2 C 12,5 C 50 % 89 % 1004,9 hPa 0,0 l/m 2,7 km/h (1 Bft) SW 0,02 h 0,6 UV-I 51 W/m 10,7 C 12,4 C 7,3 km/h (2 Bft)
25.07.2017 09:00 25,3 C 12,3 C 51 % 90 % 1004,8 hPa 0,0 l/m 3,5 km/h (1 Bft) SW 0,00 h 0,5 UV-I 53 W/m 10,7 C 12,2 C 9,6 km/h (2 Bft)
25.07.2017 10:00 25,3 C 12,3 C 50 % 92 % 1004,7 hPa 0,2 l/m 3,9 km/h (1 Bft) SW 0,32 h 1,0 UV-I 124 W/m 11,1 C 11,9 C 7,7 km/h (2 Bft)
25.07.2017 11:00 25,4 C 13,1 C 51 % 92 % 1004,5 hPa 0,2 l/m 7,7 km/h (2 Bft) W-SW 0,75 h 1,7 UV-I 236 W/m 11,7 C 11,8 C 13,2 km/h (3 Bft)
25.07.2017 12:00 25,3 C 13,7 C 51 % 88 % 1004,4 hPa 0,0 l/m 8,4 km/h (2 Bft) W-SW 0,87 h 1,8 UV-I 253 W/m 11,8 C 12,1 C 16,4 km/h (3 Bft)
25.07.2017 13:00 25,4 C 13,5 C 51 % 88 % 1004,5 hPa 0,0 l/m 8,9 km/h (2 Bft) W-SW 0,85 h 2,0 UV-I 268 W/m 11,6 C 11,9 C 17,4 km/h (3 Bft)
25.07.2017 14:00 25,5 C 14,9 C 51 % 79 % 1004,4 hPa 0,0 l/m 14,6 km/h (3 Bft) W-SW 1,00 h 4,1 UV-I 577 W/m 11,3 C 11,4 C 23,7 km/h (4 Bft)
25.07.2017 15:00 25,4 C 15,2 C 50 % 76 % 1004,3 hPa 0,0 l/m 13,5 km/h (3 Bft) W-SW 1,00 h 3,4 UV-I 467 W/m 10,9 C 12,1 C 22,0 km/h (4 Bft)
25.07.2017 16:00 25,3 C 14,9 C 48 % 75 % 1004,4 hPa 0,0 l/m 11,9 km/h (2 Bft) W-SW 0,70 h 1,8 UV-I 248 W/m 10,5 C 12,2 C 18,7 km/h (3 Bft)
25.07.2017 17:00 25,3 C 13,9 C 49 % 81 % 1004,3 hPa 0,0 l/m 9,0 km/h (2 Bft) W-SW 0,00 h 0,6 UV-I 73 W/m 10,7 C 12,2 C 15,8 km/h (3 Bft)
25.07.2017 18:00 25,5 C 13,6 C 49 % 83 % 1004,2 hPa 0,0 l/m 9,5 km/h (2 Bft) W-SW 0,00 h 0,5 UV-I 49 W/m 10,6 C 11,5 C 15,3 km/h (3 Bft)
25.07.2017 19:00 25,5 C 12,8 C 49 % 88 % 1004,1 hPa 0,2 l/m 5,7 km/h (1 Bft) SW 0,00 h 0,0 UV-I 26 W/m 10,8 C 11,8 C 10,9 km/h (2 Bft)
25.07.2017 20:00 25,7 C 12,0 C 49 % 91 % 1003,9 hPa 0,0 l/m 3,9 km/h (1 Bft) SW 0,00 h 0,0 UV-I 6 W/m 10,6 C 11,7 C 9,1 km/h (2 Bft)
25.07.2017 21:00 25,7 C 11,8 C 48 % 94 % 1003,8 hPa 0,2 l/m 4,6 km/h (1 Bft) SW 0,00 h 0,0 UV-I 0 W/m 10,8 C 11,6 C 10,1 km/h (2 Bft)
25.07.2017 22:00 25,6 C 11,9 C 49 % 94 % 1003,7 hPa 0,0 l/m 3,6 km/h (1 Bft) SW 0,00 h 0,0 UV-I 0 W/m 11,0 C 11,8 C 9,3 km/h (2 Bft)
25.07.2017 23:00 25,4 C 12,0 C 49 % 94 % 1003,4 hPa 0,0 l/m 1,8 km/h (1 Bft) SW 0,00 h 0,0 UV-I 0 W/m 11,1 C 12,0 C 5,9 km/h (2 Bft)
26.07.2017 00:00 25,2 C 12,1 C 50 % 94 % 1003,1 hPa 0,0 l/m 0,6 km/h (0 Bft) SW 0,00 h 0,0 UV-I 0 W/m 11,2 C 12,1 C 3,6 km/h (1 Bft)
26.07.2017 01:00 25,1 C 11,9 C 50 % 95 % 1002,6 hPa 0,0 l/m 0,1 km/h (0 Bft) S 0,00 h 0,0 UV-I 0 W/m 11,1 C 11,9 C 0,8 km/h (0 Bft)
26.07.2017 02:00 25,1 C 11,9 C 51 % 95 % 1002,2 hPa 0,0 l/m 0,1 km/h (0 Bft) S 0,00 h 0,0 UV-I 0 W/m 11,2 C 11,9 C 0,4 km/h (0 Bft)
26.07.2017 03:00 25,0 C 11,9 C 51 % 96 % 1001,8 hPa 0,2 l/m 0,0 km/h (0 Bft) N 0,00 h 0,0 UV-I 0 W/m 11,3 C 11,9 C 0,1 km/h (0 Bft)
26.07.2017 04:00 24,9 C 11,6 C 51 % 96 % 1001,5 hPa 0,0 l/m 0,0 km/h (0 Bft) S-SW 0,00 h 0,0 UV-I 0 W/m 11,0 C 11,6 C 0,4 km/h (0 Bft)
26.07.2017 05:00 24,8 C 11,7 C 51 % 96 % 1001,2 hPa 0,2 l/m 0,0 km/h (0 Bft) N 0,00 h 0,0 UV-I 0 W/m 11,1 C 11,7 C 0,0 km/h (0 Bft)
26.07.2017 06:00 24,7 C 11,9 C 51 % 96 % 1001,0 hPa 0,0 l/m 0,1 km/h (0 Bft) S 0,00 h 0,0 UV-I 16 W/m 11,4 C 11,9 C 0,9 km/h (0 Bft)
26.07.2017 07:00 24,8 C 12,4 C 51 % 97 % 1001,1 hPa 0,0 l/m 1,8 km/h (1 Bft) W-SW 0,00 h 0,0 UV-I 42 W/m 11,9 C 12,3 C 4,4 km/h (1 Bft)
26.07.2017 08:00 24,9 C 12,9 C 52 % 96 % 1001,5 hPa 0,4 l/m 1,0 km/h (0 Bft) W-NW 0,10 h 0,7 UV-I 109 W/m 12,2 C 12,9 C 3,0 km/h (1 Bft)
26.07.2017 09:00 24,9 C 13,2 C 52 % 96 % 1001,7 hPa 0,0 l/m 2,3 km/h (1 Bft) W-SW 0,15 h 0,8 UV-I 117 W/m 12,5 C 13,1 C 5,8 km/h (2 Bft)
26.07.2017 10:00 25,0 C 13,6 C 52 % 94 % 1002,0 hPa 0,0 l/m 2,3 km/h (1 Bft) W-SW 0,32 h 1,1 UV-I 138 W/m 12,7 C 13,6 C 6,0 km/h (2 Bft)
26.07.2017 11:00 25,1 C 14,2 C 52 % 95 % 1002,4 hPa 0,0 l/m 0,7 km/h (0 Bft) W 0,70 h 1,4 UV-I 168 W/m 13,4 C 14,2 C 2,0 km/h (1 Bft)
26.07.2017 12:00 25,0 C 15,0 C 52 % 93 % 1002,7 hPa 0,0 l/m 5,3 km/h (1 Bft) W-NW 0,85 h 1,8 UV-I 206 W/m 13,8 C 14,7 C 11,1 km/h (2 Bft)
26.07.2017 13:00 25,1 C 15,0 C 53 % 94 % 1003,5 hPa 0,8 l/m 2,8 km/h (1 Bft) W-NW 0,63 h 1,5 UV-I 166 W/m 14,0 C 14,8 C 6,8 km/h (2 Bft)
26.07.2017 14:00 25,2 C 14,9 C 54 % 95 % 1004,3 hPa 0,8 l/m 4,6 km/h (1 Bft) W-NW 0,33 h 1,3 UV-I 139 W/m 14,1 C 14,5 C 9,2 km/h (2 Bft)
26.07.2017 15:00 24,4 C 14,6 C 54 % 94 % 1005,2 hPa 0,4 l/m 3,9 km/h (1 Bft) W-NW 0,00 h 0,7 UV-I 65 W/m 13,7 C 14,5 C 8,9 km/h (2 Bft)
26.07.2017 16:00 23,8 C 14,3 C 55 % 95 % 1006,0 hPa 0,4 l/m 4,0 km/h (1 Bft) W-NW 0,00 h 0,6 UV-I 50 W/m 13,4 C 13,9 C 6,4 km/h (2 Bft)
26.07.2017 17:00 23,5 C 13,9 C 55 % 94 % 1006,8 hPa 0,0 l/m 4,8 km/h (1 Bft) W-NW 0,00 h 0,6 UV-I 51 W/m 12,9 C 13,4 C 11,0 km/h (2 Bft)
26.07.2017 18:00 24,2 C 13,8 C 55 % 93 % 1007,5 hPa 0,2 l/m 3,2 km/h (1 Bft) W-NW 0,00 h 0,5 UV-I 50 W/m 12,6 C 13,5 C 7,2 km/h (2 Bft)
26.07.2017 19:00 24,7 C 13,5 C 55 % 93 % 1007,9 hPa 0,0 l/m 1,9 km/h (1 Bft) W-NW 0,00 h 0,0 UV-I 44 W/m 12,5 C 13,5 C 5,7 km/h (1 Bft)
26.07.2017 20:00 24,8 C 13,5 C 55 % 94 % 1008,3 hPa 0,0 l/m 0,9 km/h (0 Bft) W-SW 0,00 h 0,0 UV-I 23 W/m 12,6 C 13,5 C 2,7 km/h (1 Bft)
26.07.2017 21:00 25,1 C 13,2 C 55 % 94 % 1008,8 hPa 0,0 l/m 0,7 km/h (0 Bft) W 0,00 h 0,0 UV-I 0 W/m 12,3 C 13,2 C 2,7 km/h (1 Bft)
26.07.2017 22:00 25,1 C 12,8 C 55 % 95 % 1009,3 hPa 0,0 l/m 0,3 km/h (0 Bft) W-SW 0,00 h 0,0 UV-I 0 W/m 12,0 C 12,8 C 1,3 km/h (1 Bft)
26.07.2017 23:00 24,9 C 12,7 C 55 % 95 % 1009,5 hPa 0,0 l/m 0,5 km/h (0 Bft) W-SW 0,00 h 0,0 UV-I 0 W/m 11,9 C 12,7 C 2,0 km/h (1 Bft)
27.07.2017 00:00 24,8 C 12,7 C 55 % 95 % 1009,6 hPa 0,0 l/m 0,5 km/h (0 Bft) W-SW 0,00 h 0,0 UV-I 0 W/m 12,0 C 12,7 C 2,3 km/h (1 Bft)
27.07.2017 01:00 24,8 C 12,8 C 55 % 95 % 1009,7 hPa 0,0 l/m 0,3 km/h (0 Bft) SW 0,00 h 0,0 UV-I 0 W/m 12,0 C 12,8 C 1,8 km/h (1 Bft)
27.07.2017 02:00 24,8 C 12,9 C 55 % 95 % 1009,6 hPa 0,0 l/m 0,1 km/h (0 Bft) SW 0,00 h 0,0 UV-I 0 W/m 12,2 C 12,9 C 0,6 km/h (0 Bft)
27.07.2017 03:00 24,8 C 13,1 C 56 % 95 % 1009,5 hPa 0,0 l/m 0,2 km/h (0 Bft) SW 0,00 h 0,0 UV-I 0 W/m 12,4 C 13,1 C 1,1 km/h (0 Bft)
27.07.2017 04:00 24,7 C 13,0 C 56 % 95 % 1009,3 hPa 0,0 l/m 0,2 km/h (0 Bft) W-SW 0,00 h 0,0 UV-I 0 W/m 12,2 C 13,0 C 1,2 km/h (1 Bft)
27.07.2017 05:00 24,6 C 12,6 C 56 % 95 % 1009,6 hPa 0,0 l/m 0,0 km/h (0 Bft) N 0,00 h 0,0 UV-I 5 W/m 11,9 C 12,6 C 0,2 km/h (0 Bft)
27.07.2017 06:00 24,5 C 12,6 C 56 % 96 % 1009,8 hPa 0,0 l/m 0,0 km/h (0 Bft) N 0,00 h 0,0 UV-I 20 W/m 12,0 C 12,6 C 0,1 km/h (0 Bft)
27.07.2017 07:00 24,6 C 12,9 C 55 % 96 % 1010,1 hPa 0,0 l/m 0,7 km/h (0 Bft) S 0,00 h 0,5 UV-I 49 W/m 12,2 C 12,9 C 2,1 km/h (1 Bft)
27.07.2017 08:00 24,6 C 13,9 C 54 % 94 % 1010,1 hPa 0,0 l/m 0,9 km/h (0 Bft) S-SO 0,83 h 1,0 UV-I 224 W/m 13,0 C 13,9 C 3,2 km/h (1 Bft)
27.07.2017 09:00 24,4 C 15,7 C 54 % 89 % 1010,1 hPa 0,0 l/m 2,5 km/h (1 Bft) S 0,97 h 1,6 UV-I 251 W/m 13,8 C 15,6 C 6,8 km/h (2 Bft)
27.07.2017 10:00 24,4 C 15,6 C 54 % 89 % 1010,1 hPa 0,0 l/m 1,9 km/h (1 Bft) S 0,17 h 0,9 UV-I 96 W/m 13,7 C 15,6 C 5,7 km/h (1 Bft)
27.07.2017 11:00 24,4 C 14,9 C 54 % 94 % 1010,1 hPa 0,0 l/m 1,1 km/h (0 Bft) S 0,05 h 1,0 UV-I 107 W/m 13,9 C 14,9 C 4,1 km/h (1 Bft)
27.07.2017 12:00 24,6 C 14,8 C 54 % 95 % 1009,9 hPa 0,0 l/m 1,1 km/h (1 Bft) S 0,00 h 0,8 UV-I 79 W/m 14,0 C 14,8 C 4,4 km/h (1 Bft)
27.07.2017 13:00 24,6 C 15,1 C 55 % 96 % 1009,9 hPa 0,0 l/m 0,7 km/h (0 Bft) SW 0,05 h 1,0 UV-I 96 W/m 14,4 C 15,1 C 2,9 km/h (1 Bft)
27.07.2017 14:00 24,8 C 16,0 C 56 % 95 % 1009,5 hPa 0,0 l/m 1,1 km/h (1 Bft) SW 0,93 h 1,9 UV-I 217 W/m 15,2 C 16,0 C 4,0 km/h (1 Bft)
27.07.2017 15:00 25,0 C 16,4 C 56 % 93 % 1009,4 hPa 0,0 l/m 0,7 km/h (0 Bft) W-SW 0,15 h 1,0 UV-I 105 W/m 15,2 C 16,4 C 2,3 km/h (1 Bft)
27.07.2017 16:00 24,9 C 16,5 C 56 % 94 % 1009,3 hPa 0,0 l/m 0,1 km/h (0 Bft) SW 0,00 h 0,7 UV-I 68 W/m 15,4 C 16,5 C 0,5 km/h (0 Bft)
27.07.2017 17:00 25,1 C 16,9 C 57 % 93 % 1009,2 hPa 0,0 l/m 0,1 km/h (0 Bft) SW 0,10 h 0,7 UV-I 96 W/m 15,7 C 16,9 C 0,5 km/h (0 Bft)
27.07.2017 18:00 25,2 C 17,1 C 57 % 94 % 1009,0 hPa 0,0 l/m 0,2 km/h (0 Bft) S-SW 0,08 h 0,6 UV-I 90 W/m 16,1 C 17,1 C 1,1 km/h (0 Bft)
27.07.2017 19:00 24,8 C 17,1 C 58 % 94 % 1009,0 hPa 0,0 l/m 0,0 km/h (0 Bft) N 0,00 h 0,5 UV-I 41 W/m 16,1 C 17,1 C 0,2 km/h (0 Bft)
27.07.2017 20:00 24,6 C 16,8 C 59 % 94 % 1008,9 hPa 0,0 l/m 0,0 km/h (0 Bft) S 0,00 h 0,0 UV-I 12 W/m 15,8 C 16,8 C 0,2 km/h (0 Bft)
27.07.2017 21:00 25,0 C 16,4 C 59 % 95 % 1009,0 hPa 0,0 l/m 0,1 km/h (0 Bft) S-SW 0,00 h 0,0 UV-I 0 W/m 15,6 C 16,4 C 0,4 km/h (0 Bft)
27.07.2017 22:00 25,0 C 16,2 C 59 % 95 % 1009,0 hPa 0,0 l/m 0,7 km/h (0 Bft) S 0,00 h 0,0 UV-I 0 W/m 15,5 C 16,2 C 3,0 km/h (1 Bft)
27.07.2017 23:00 24,8 C 16,2 C 59 % 96 % 1009,1 hPa 0,0 l/m 0,1 km/h (0 Bft) S 0,00 h 0,0 UV-I 0 W/m 15,6 C 16,2 C 0,5 km/h (0 Bft)
28.07.2017 00:00 24,7 C 16,2 C 59 % 96 % 1009,0 hPa 0,0 l/m 0,5 km/h (0 Bft) S-SW 0,00 h 0,0 UV-I 0 W/m 15,5 C 16,2 C 1,8 km/h (1 Bft)
28.07.2017 01:00 24,6 C 16,0 C 59 % 96 % 1008,8 hPa 0,0 l/m 0,1 km/h (0 Bft) S 0,00 h 0,0 UV-I 0 W/m 15,4 C 16,0 C 0,7 km/h (0 Bft)
28.07.2017 02:00 24,6 C 15,8 C 59 % 96 % 1008,8 hPa 0,0 l/m 0,0 km/h (0 Bft) N 0,00 h 0,0 UV-I 0 W/m 15,2 C 15,8 C 0,1 km/h (0 Bft)
28.07.2017 03:00 24,5 C 15,7 C 59 % 96 % 1008,8 hPa 0,0 l/m 0,3 km/h (0 Bft) SW 0,00 h 0,0 UV-I 0 W/m 15,1 C 15,7 C 1,5 km/h (1 Bft)
28.07.2017 04:00 24,4 C 15,7 C 59 % 96 % 1008,7 hPa 1,4 l/m 0,1 km/h (0 Bft) S 0,00 h 0,0 UV-I 0 W/m 15,1 C 15,7 C 0,7 km/h (0 Bft)
28.07.2017 05:00 24,3 C 15,7 C 59 % 96 % 1008,9 hPa 0,2 l/m 0,7 km/h (0 Bft) SW 0,00 h 0,0 UV-I 10 W/m 15,1 C 15,7 C 2,7 km/h (1 Bft)
28.07.2017 06:00 24,3 C 15,3 C 59 % 96 % 1009,4 hPa 0,0 l/m 2,9 km/h (1 Bft) SW 0,00 h 0,0 UV-I 28 W/m 14,7 C 15,1 C 7,7 km/h (2 Bft)
28.07.2017 07:00 24,3 C 15,4 C 59 % 95 % 1010,0 hPa 0,0 l/m 4,0 km/h (1 Bft) W-SW 0,28 h 0,6 UV-I 124 W/m 14,6 C 15,2 C 10,0 km/h (2 Bft)
28.07.2017 08:00 24,1 C 16,0 C 58 % 89 % 1010,6 hPa 0,0 l/m 5,5 km/h (1 Bft) SW 0,50 h 1,0 UV-I 220 W/m 14,2 C 15,7 C 11,9 km/h (2 Bft)
28.07.2017 09:00 24,2 C 15,9 C 58 % 89 % 1011,1 hPa 0,0 l/m 3,0 km/h (1 Bft) W-SW 0,37 h 1,2 UV-I 141 W/m 14,2 C 15,8 C 7,3 km/h (2 Bft)
28.07.2017 10:00 24,2 C 18,0 C 58 % 82 % 1011,3 hPa 0,2 l/m 6,1 km/h (2 Bft) W-SW 0,78 h 3,0 UV-I 561 W/m 14,8 C 17,4 C 12,2 km/h (2 Bft)
28.07.2017 11:00 24,3 C 18,4 C 57 % 74 % 1011,9 hPa 0,0 l/m 9,1 km/h (2 Bft) W 0,90 h 4,2 UV-I 593 W/m 13,7 C 17,1 C 17,5 km/h (3 Bft)
28.07.2017 12:00 24,3 C 19,8 C 55 % 61 % 1012,5 hPa 0,0 l/m 10,2 km/h (2 Bft) W 1,00 h 5,8 UV-I 758 W/m 12,0 C 18,4 C 19,1 km/h (3 Bft)
28.07.2017 13:00 24,4 C 19,0 C 53 % 61 % 1013,0 hPa 0,0 l/m 7,5 km/h (2 Bft) W 1,00 h 4,2 UV-I 410 W/m 11,3 C 18,1 C 15,6 km/h (3 Bft)
28.07.2017 14:00 24,3 C 18,6 C 50 % 63 % 1013,4 hPa 0,0 l/m 6,9 km/h (2 Bft) W 1,00 h 3,4 UV-I 373 W/m 11,4 C 18,0 C 13,2 km/h (3 Bft)
28.07.2017 15:00 24,0 C 18,8 C 48 % 59 % 1013,7 hPa 0,0 l/m 5,2 km/h (1 Bft) W-SW 0,90 h 2,7 UV-I 311 W/m 10,7 C 18,4 C 10,6 km/h (2 Bft)
28.07.2017 16:00 24,3 C 19,8 C 49 % 57 % 1013,7 hPa 0,0 l/m 5,9 km/h (2 Bft) W 0,98 h 2,7 UV-I 385 W/m 11,0 C 19,4 C 12,5 km/h (3 Bft)
28.07.2017 17:00 24,3 C 19,3 C 49 % 57 % 1013,8 hPa 0,0 l/m 6,5 km/h (2 Bft) W-SW 0,75 h 1,3 UV-I 202 W/m 10,5 C 18,7 C 12,2 km/h (2 Bft)
28.07.2017 18:00 24,2 C 18,9 C 50 % 59 % 1014,1 hPa 0,0 l/m 5,4 km/h (1 Bft) W-SW 0,20 h 0,9 UV-I 120 W/m 10,8 C 18,6 C 10,9 km/h (2 Bft)
28.07.2017 19:00 24,7 C 18,4 C 50 % 63 % 1014,6 hPa 0,0 l/m 3,7 km/h (1 Bft) W-SW 0,00 h 0,6 UV-I 54 W/m 11,2 C 18,3 C 9,0 km/h (2 Bft)
28.07.2017 20:00 24,8 C 17,5 C 50 % 68 % 1014,9 hPa 0,0 l/m 0,4 km/h (0 Bft) W-SW 0,00 h 0,0 UV-I 18 W/m 11,5 C 17,5 C 1,2 km/h (1 Bft)
28.07.2017 21:00 24,9 C 15,9 C 51 % 76 % 1015,5 hPa 0,0 l/m 0,0 km/h (0 Bft) N 0,00 h 0,0 UV-I 0 W/m 11,7 C 15,9 C 0,0 km/h (0 Bft)
28.07.2017 22:00 24,9 C 15,0 C 51 % 81 % 1015,8 hPa 0,0 l/m 0,0 km/h (0 Bft) N 0,00 h 0,0 UV-I 0 W/m 11,8 C 15,0 C 0,0 km/h (0 Bft)
28.07.2017 23:00 24,7 C 14,0 C 51 % 86 % 1016,1 hPa 0,0 l/m 0,0 km/h (0 Bft) N 0,00 h 0,0 UV-I 0 W/m 11,6 C 14,0 C 0,0 km/h (0 Bft)
29.07.2017 00:00 24,6 C 12,9 C 52 % 90 % 1016,3 hPa 0,0 l/m 0,0 km/h (0 Bft) N 0,00 h 0,0 UV-I 0 W/m 11,3 C 12,9 C 0,0 km/h (0 Bft)
29.07.2017 01:00 24,5 C 12,2 C 52 % 91 % 1016,4 hPa 0,0 l/m 0,0 km/h (0 Bft) N 0,00 h 0,0 UV-I 0 W/m 10,8 C 12,2 C 0,0 km/h (0 Bft)
29.07.2017 02:00 24,4 C 11,9 C 53 % 92 % 1016,2 hPa 0,0 l/m 0,0 km/h (0 Bft) N 0,00 h 0,0 UV-I 0 W/m 10,6 C 11,9 C 0,0 km/h (0 Bft)
29.07.2017 03:00 24,4 C 11,8 C 53 % 92 % 1016,1 hPa 0,0 l/m 0,0 km/h (0 Bft) N 0,00 h 0,0 UV-I 0 W/m 10,6 C 11,8 C 0,0 km/h (0 Bft)
29.07.2017 04:00 24,3 C 12,0 C 53 % 93 % 1016,0 hPa 0,0 l/m 0,0 km/h (0 Bft) N 0,00 h 0,0 UV-I 0 W/m 10,9 C 12,0 C 0,0 km/h (0 Bft)
29.07.2017 05:00 24,3 C 12,1 C 54 % 94 % 1016,0 hPa 0,0 l/m 0,0 km/h (0 Bft) N 0,00 h 0,0 UV-I 5 W/m 11,2 C 12,1 C 0,0 km/h (0 Bft)
29.07.2017 06:00 24,3 C 12,2 C 54 % 94 % 1016,1 hPa 0,0 l/m 0,0 km/h (0 Bft) N 0,00 h 0,0 UV-I 25 W/m 11,2 C 12,2 C 0,0 km/h (0 Bft)
29.07.2017 07:00 24,4 C 13,4 C 55 % 93 % 1016,3 hPa 0,0 l/m 0,0 km/h (0 Bft) N 0,33 h 0,7 UV-I 134 W/m 12,3 C 13,4 C 0,0 km/h (0 Bft)
29.07.2017 08:00 24,5 C 17,2 C 55 % 80 % 1016,3 hPa 0,0 l/m 0,0 km/h (0 Bft) N 0,98 h 1,5 UV-I 397 W/m 13,7 C 17,2 C 0,0 km/h (0 Bft)
29.07.2017 09:00 24,4 C 19,4 C 55 % 76 % 1016,2 hPa 0,0 l/m 4,0 km/h (1 Bft) S 1,00 h 2,2 UV-I 426 W/m 15,0 C 19,2 C 8,4 km/h (2 Bft)
29.07.2017 10:00 24,6 C 20,7 C 55 % 72 % 1016,3 hPa 0,0 l/m 6,0 km/h (2 Bft) S 1,00 h 3,9 UV-I 666 W/m 15,5 C 20,3 C 11,8 km/h (2 Bft)
29.07.2017 11:00 24,8 C 22,0 C 55 % 65 % 1016,2 hPa 0,0 l/m 5,6 km/h (1 Bft) S 1,00 h 4,8 UV-I 637 W/m 15,2 C 21,7 C 11,5 km/h (2 Bft)
29.07.2017 12:00 24,7 C 21,1 C 54 % 67 % 1016,3 hPa 0,0 l/m 4,5 km/h (1 Bft) S 0,83 h 2,7 UV-I 269 W/m 14,7 C 20,9 C 10,4 km/h (2 Bft)
29.07.2017 13:00 24,7 C 22,7 C 53 % 61 % 1015,9 hPa 0,0 l/m 6,1 km/h (2 Bft) W-SW 1,00 h 5,1 UV-I 547 W/m 14,6 C 22,3 C 11,7 km/h (2 Bft)
29.07.2017 14:00 24,8 C 23,6 C 53 % 58 % 1015,6 hPa 0,0 l/m 5,8 km/h (2 Bft) W-SW 1,00 h 5,7 UV-I 720 W/m 14,9 C 23,3 C 11,9 km/h (2 Bft)
29.07.2017 15:00 25,1 C 24,8 C 53 % 55 % 1015,3 hPa 0,0 l/m 4,7 km/h (1 Bft) S 1,00 h 5,2 UV-I 744 W/m 15,2 C 24,7 C 11,2 km/h (2 Bft)
29.07.2017 16:00 25,2 C 25,3 C 52 % 54 % 1014,9 hPa 0,0 l/m 4,9 km/h (1 Bft) W-SW 1,00 h 3,6 UV-I 623 W/m 15,3 C 25,2 C 11,8 km/h (2 Bft)
29.07.2017 17:00 25,3 C 25,4 C 53 % 54 % 1014,8 hPa 0,0 l/m 5,1 km/h (1 Bft) W-SW 0,88 h 2,2 UV-I 454 W/m 15,4 C 25,2 C 10,6 km/h (2 Bft)
29.07.2017 18:00 25,3 C 24,3 C 54 % 58 % 1014,5 hPa 0,0 l/m 2,5 km/h (1 Bft) W-NW 0,15 h 1,0 UV-I 103 W/m 15,4 C 24,3 C 6,6 km/h (2 Bft)
29.07.2017 19:00 25,3 C 23,4 C 54 % 60 % 1014,3 hPa 0,0 l/m 0,6 km/h (0 Bft) W-SW 0,00 h 0,0 UV-I 23 W/m 15,1 C 23,4 C 2,3 km/h (1 Bft)
29.07.2017 20:00 25,2 C 22,0 C 54 % 66 % 1014,1 hPa 0,0 l/m 0,0 km/h (0 Bft) W 0,00 h 0,0 UV-I 9 W/m 15,4 C 22,0 C 0,2 km/h (0 Bft)
29.07.2017 21:00 25,0 C 19,3 C 55 % 78 % 1014,2 hPa 0,0 l/m 0,0 km/h (0 Bft) N 0,00 h 0,0 UV-I 0 W/m 15,4 C 19,3 C 0,0 km/h (0 Bft)
29.07.2017 22:00 25,0 C 17,4 C 56 % 86 % 1014,3 hPa 0,0 l/m 0,0 km/h (0 Bft) N 0,00 h 0,0 UV-I 0 W/m 15,1 C 17,4 C 0,0 km/h (0 Bft)
29.07.2017 23:00 25,1 C 16,0 C 56 % 90 % 1014,3 hPa 0,0 l/m 0,0 km/h (0 Bft) N 0,00 h 0,0 UV-I 0 W/m 14,4 C 16,0 C 0,0 km/h (0 Bft)
30.07.2017 00:00 24,9 C 15,1 C 56 % 92 % 1014,2 hPa 0,0 l/m 0,0 km/h (0 Bft) N 0,00 h 0,0 UV-I 0 W/m 13,8 C 15,1 C 0,0 km/h (0 Bft)
30.07.2017 01:00 24,8 C 14,2 C 56 % 94 % 1014,0 hPa 0,0 l/m 0,0 km/h (0 Bft) N 0,00 h 0,0 UV-I 0 W/m 13,1 C 14,2 C 0,0 km/h (0 Bft)
30.07.2017 02:00 24,8 C 13,7 C 56 % 94 % 1013,6 hPa 0,0 l/m 0,0 km/h (0 Bft) N 0,00 h 0,0 UV-I 0 W/m 12,8 C 13,7 C 0,0 km/h (0 Bft)
30.07.2017 03:00 24,7 C 13,2 C 56 % 95 % 1013,3 hPa 0,0 l/m 0,0 km/h (0 Bft) N 0,00 h 0,0 UV-I 0 W/m 12,4 C 13,2 C 0,0 km/h (0 Bft)
30.07.2017 04:00 24,7 C 12,6 C 57 % 95 % 1012,9 hPa 0,0 l/m 0,0 km/h (0 Bft) N 0,00 h 0,0 UV-I 0 W/m 11,8 C 12,6 C 0,0 km/h (0 Bft)
30.07.2017 05:00 24,7 C 12,5 C 57 % 95 % 1012,9 hPa 0,0 l/m 0,0 km/h (0 Bft) N 0,00 h 0,0 UV-I 6 W/m 11,7 C 12,5 C 0,0 km/h (0 Bft)
30.07.2017 06:00 24,7 C 12,3 C 57 % 95 % 1012,8 hPa 0,0 l/m 0,0 km/h (0 Bft) N 0,00 h 0,0 UV-I 14 W/m 11,5 C 12,3 C 0,0 km/h (0 Bft)
30.07.2017 07:00 24,8 C 14,4 C 57 % 93 % 1012,6 hPa 0,0 l/m 0,0 km/h (0 Bft) N 0,43 h 0,8 UV-I 131 W/m 13,3 C 14,4 C 0,0 km/h (0 Bft)
30.07.2017 08:00 25,0 C 20,2 C 58 % 80 % 1012,2 hPa 0,0 l/m 0,0 km/h (0 Bft) N 1,00 h 1,5 UV-I 416 W/m 16,6 C 20,2 C 0,0 km/h (0 Bft)
30.07.2017 09:00 24,8 C 23,5 C 59 % 69 % 1012,0 hPa 0,0 l/m 7,7 km/h (2 Bft) S 1,00 h 2,4 UV-I 555 W/m 17,4 C 22,8 C 13,1 km/h (3 Bft)
30.07.2017 10:00 25,0 C 25,1 C 59 % 63 % 1011,8 hPa 0,0 l/m 11,3 km/h (2 Bft) S-SO 1,00 h 4,0 UV-I 635 W/m 17,5 C 24,1 C 17,6 km/h (3 Bft)
30.07.2017 11:00 25,3 C 27,2 C 58 % 58 % 1011,5 hPa 0,0 l/m 7,6 km/h (2 Bft) S 1,00 h 5,4 UV-I 777 W/m 18,2 C 26,9 C 13,7 km/h (3 Bft)
30.07.2017 12:00 25,6 C 28,3 C 59 % 55 % 1011,1 hPa 0,0 l/m 7,4 km/h (2 Bft) S 1,00 h 6,3 UV-I 825 W/m 18,4 C 28,0 C 13,6 km/h (3 Bft)
30.07.2017 13:00 25,8 C 28,9 C 57 % 51 % 1010,9 hPa 0,0 l/m 8,9 km/h (2 Bft) S 1,00 h 6,3 UV-I 845 W/m 17,9 C 28,6 C 16,1 km/h (3 Bft)
30.07.2017 14:00 26,0 C 29,9 C 58 % 48 % 1010,6 hPa 0,0 l/m 7,8 km/h (2 Bft) S 1,00 h 5,5 UV-I 750 W/m 17,6 C 29,6 C 14,9 km/h (3 Bft)
30.07.2017 15:00 26,3 C 30,6 C 55 % 41 % 1010,3 hPa 0,0 l/m 9,2 km/h (2 Bft) W-SW 0,95 h 4,7 UV-I 714 W/m 15,9 C 30,3 C 16,2 km/h (3 Bft)
30.07.2017 16:00 26,9 C 30,4 C 51 % 42 % 1010,1 hPa 0,0 l/m 7,0 km/h (2 Bft) W-SW 1,00 h 3,2 UV-I 557 W/m 16,1 C 30,3 C 13,9 km/h (3 Bft)
30.07.2017 17:00 27,2 C 29,3 C 49 % 43 % 1010,8 hPa 0,0 l/m 6,1 km/h (2 Bft) W-SW 0,45 h 1,5 UV-I 261 W/m 15,3 C 29,3 C 9,3 km/h (2 Bft)
30.07.2017 18:00 26,8 C 26,8 C 49 % 45 % 1011,7 hPa 0,0 l/m 5,9 km/h (2 Bft) W 0,00 h 0,5 UV-I 31 W/m 13,9 C 26,6 C 11,5 km/h (2 Bft)
30.07.2017 19:00 26,4 C 23,6 C 51 % 61 % 1011,1 hPa 0,0 l/m 1,0 km/h (0 Bft) W-SW 0,00 h 0,0 UV-I 34 W/m 15,5 C 23,6 C 1,9 km/h (1 Bft)
30.07.2017 20:00 26,2 C 22,5 C 53 % 65 % 1011,0 hPa 0,0 l/m 0,2 km/h (0 Bft) W-NW 0,00 h 0,0 UV-I 27 W/m 15,7 C 22,5 C 0,4 km/h (0 Bft)
30.07.2017 21:00 26,1 C 21,1 C 53 % 71 % 1012,3 hPa 0,0 l/m 0,1 km/h (0 Bft) W-NW 0,00 h 0,0 UV-I 0 W/m 15,7 C 21,1 C 0,5 km/h (0 Bft)
30.07.2017 22:00 26,0 C 19,7 C 54 % 77 % 1012,5 hPa 0,0 l/m 0,1 km/h (0 Bft) O-SO 0,00 h 0,0 UV-I 0 W/m 15,6 C 19,7 C 0,3 km/h (0 Bft)
30.07.2017 23:00 25,9 C 19,3 C 55 % 79 % 1013,1 hPa 0,0 l/m 0,0 km/h (0 Bft) N 0,00 h 0,0 UV-I 0 W/m 15,6 C 19,3 C 0,0 km/h (0 Bft)
Min-Datum _ 26.07.17 25.07.17 25.07.17 30.07.17 26.07.17 - 24.07.17 - - - - 24.07.17 25.07.17 24.07.17
_ Min-Zeit 17:18 03:14 17:00 15:42 07:12 - 00:00 - - - - 05:36 19:16 00:00
Minimum _ 23,2 C 0,0 C 46 % 38 % 1000,8 hPa - 0,0 km/h (0 Bft) - - - - 8,3 C 6,8 C 0,0 km/h (0 Bft)
Max-Datum _ 30.07.17 30.07.17 27.07.17 26.07.17 29.07.17 28.07.17 25.07.17 - 24.07.17 29.07.17 25.07.17 30.07.17 30.07.17 25.07.17
_ Max-Zeit 17:26 15:47 19:41 06:33 01:02 04:52 14:47 - 09:24 12:57 14:28 12:43 14:47 14:47
Maximum _ 27,4 C 30,9 C 59 % 97 % 1016,6 hPa 1,4 l/m 29,0 km/h
W-SW (5 Bft)
- 0,03 h 8,2 UV-I 1129 W/m 19,8 C 30,8 C 45,1 km/h
W-SW (6 Bft)
Durchschnitt _ 25,1 C 16,0 C 53 % 84 % 1009,6 hPa #7,4 l/m 2,7 km/h (1 Bft) W-SW #47:02 h 2,0 UV-I 220 W/m 13,0 C 15,8 C 5,7 km/h (1 Bft)